createdAt,value
2019-02-17T00:02:27.191Z,121.40
2019-02-17T00:07:32.917Z,124.40
2019-02-17T00:12:37.541Z,121.43
2019-02-17T00:17:42.399Z,117.87
2019-02-17T00:22:47.605Z,115.97
2019-02-17T00:27:52.271Z,117.73
2019-02-17T00:32:57.546Z,123.07
2019-02-17T00:38:03.295Z,122.43
2019-02-17T00:43:07.490Z,119.27
2019-02-17T00:48:13.224Z,117.57
2019-02-17T00:53:18.379Z,117.27
2019-02-17T00:58:22.682Z,124.93
2019-02-17T01:03:26.840Z,123.00
2019-02-17T01:08:31.102Z,127.10
2019-02-17T01:13:37.050Z,125.07
2019-02-17T01:18:41.786Z,117.30
2019-02-17T01:23:46.082Z,127.47
2019-02-17T01:28:50.356Z,123.77
2019-02-17T01:33:54.715Z,120.23
2019-02-17T01:38:58.866Z,124.27
2019-02-17T01:44:04.241Z,127.83
2019-02-17T01:49:08.386Z,127.63
2019-02-17T01:54:12.658Z,129.40
2019-02-17T01:59:17.127Z,131.70
2019-02-17T02:04:21.982Z,136.53
2019-02-17T02:09:26.458Z,128.87
2019-02-17T02:14:32.139Z,131.30
2019-02-17T02:19:37.255Z,136.17
2019-02-17T02:24:41.769Z,136.63
2019-02-17T02:29:46.060Z,134.23
2019-02-17T02:34:50.377Z,130.57
2019-02-17T02:39:54.969Z,131.87
2019-02-17T02:44:59.295Z,139.13
2019-02-17T02:50:05.410Z,135.83
2019-02-17T02:55:11.127Z,130.87
2019-02-17T03:00:15.916Z,135.30
2019-02-17T03:05:21.853Z,138.93
2019-02-17T03:10:27.542Z,139.93
2019-02-17T03:15:31.826Z,138.60
2019-02-17T03:20:36.051Z,135.37
2019-02-17T03:25:40.518Z,138.60
2019-02-17T03:30:44.991Z,145.23
2019-02-17T03:35:49.732Z,136.37
2019-02-17T03:40:54.163Z,140.87
2019-02-17T03:45:58.278Z,139.03
2019-02-17T03:51:02.561Z,137.90
2019-02-17T03:56:07.107Z,142.63
2019-02-17T04:01:11.363Z,133.47
2019-02-17T04:06:15.749Z,130.17
2019-02-17T04:11:20.194Z,129.17
2019-02-17T04:16:25.131Z,135.43
2019-02-17T04:21:29.320Z,141.17
2019-02-17T04:26:33.621Z,133.43
2019-02-17T04:31:38.995Z,123.40
2019-02-17T04:36:43.441Z,140.83
2019-02-17T04:41:49.130Z,131.63
2019-02-17T04:46:53.589Z,133.00
2019-02-17T04:51:57.805Z,139.43
2019-02-17T04:57:01.954Z,142.03
2019-02-17T05:02:06.456Z,142.97
2019-02-17T05:07:11.415Z,128.13
2019-02-17T05:12:16.466Z,137.83
2019-02-17T05:17:20.637Z,138.70
2019-02-17T05:22:25.198Z,137.27
2019-02-17T05:27:29.386Z,132.47
2019-02-17T05:32:33.759Z,139.27
2019-02-17T05:37:38.427Z,143.93
2019-02-17T05:42:42.996Z,135.50
2019-02-17T05:47:47.163Z,133.23
2019-02-17T05:52:51.805Z,135.53
2019-02-17T05:57:56.059Z,136.47
2019-02-17T06:03:00.414Z,143.67
2019-02-17T06:08:05.201Z,136.93
2019-02-17T06:13:09.420Z,129.33
2019-02-17T06:18:13.670Z,127.87
2019-02-17T06:23:17.849Z,125.47
2019-02-17T06:28:22.758Z,129.67
2019-02-17T06:33:27.713Z,133.27
2019-02-17T06:38:31.861Z,127.50
2019-02-17T06:43:36.109Z,124.23
2019-02-17T06:48:40.436Z,123.10
2019-02-17T06:53:45.048Z,133.00
2019-02-17T06:58:49.253Z,124.43
2019-02-17T07:03:53.546Z,130.07
2019-02-17T07:08:58.101Z,128.57
2019-02-17T07:14:02.485Z,130.10
2019-02-17T07:19:07.054Z,124.07
2019-02-17T07:24:12.034Z,121.40
2019-02-17T07:29:16.939Z,121.37
2019-02-17T07:34:21.574Z,115.77
2019-02-17T07:39:26.123Z,116.90
2019-02-17T07:44:30.501Z,119.67
2019-02-17T07:49:37.273Z,124.20
2019-02-17T07:54:41.836Z,112.30
2019-02-17T07:59:46.230Z,122.53
2019-02-17T08:04:50.466Z,118.00
2019-02-17T08:09:54.729Z,117.27
2019-02-17T08:14:59.386Z,112.83
2019-02-17T08:20:06.373Z,106.17
2019-02-17T08:25:21.543Z,109.37
2019-02-17T08:30:18.824Z,106.23
2019-02-17T08:35:24.586Z,102.83
2019-02-17T08:40:30.438Z,102.60
2019-02-17T08:45:35.498Z,101.97
2019-02-17T08:50:39.670Z,104.60
2019-02-17T08:55:43.927Z,101.90
2019-02-17T09:00:48.493Z,101.50
2019-02-17T09:05:52.690Z,95.63
2019-02-17T09:10:56.852Z,100.03
2019-02-17T09:16:01.071Z,97.03
2019-02-17T09:21:05.758Z,95.47
2019-02-17T09:26:11.535Z,95.27
2019-02-17T09:31:16.060Z,90.80
2019-02-17T09:36:20.370Z,99.57
2019-02-17T09:41:26.082Z,91.17
2019-02-17T09:46:30.653Z,87.73
2019-02-17T09:51:34.915Z,92.00
2019-02-17T09:56:39.282Z,88.00
2019-02-17T10:01:43.628Z,95.63
2019-02-17T10:06:47.969Z,91.30
2019-02-17T10:11:52.306Z,91.27
2019-02-17T10:16:56.951Z,88.10
2019-02-17T10:22:01.250Z,83.83
2019-02-17T10:27:05.505Z,78.77
2019-02-17T10:32:11.275Z,80.30
2019-02-17T10:37:15.979Z,80.13
2019-02-17T10:42:21.738Z,78.00
2019-02-17T10:47:25.887Z,80.07
2019-02-17T10:52:30.137Z,81.27
2019-02-17T10:57:34.969Z,77.53
2019-02-17T11:02:46.765Z,76.87
2019-02-17T11:07:45.410Z,75.57
2019-02-17T11:12:49.578Z,80.20
2019-02-17T11:17:53.831Z,74.70
2019-02-17T11:22:58.114Z,76.93
2019-02-17T11:28:02.279Z,73.97
2019-02-17T11:33:07.903Z,73.50
2019-02-17T11:38:13.658Z,66.53
2019-02-17T11:43:19.361Z,70.53
2019-02-17T11:48:23.557Z,70.27
2019-02-17T11:53:27.822Z,68.13
2019-02-17T11:58:31.952Z,67.30
2019-02-17T12:03:36.257Z,65.03
2019-02-17T12:08:45.082Z,67.17
2019-02-17T12:13:49.348Z,66.07
2019-02-17T12:18:53.517Z,63.47
2019-02-17T12:23:58.182Z,64.13
2019-02-17T12:29:02.576Z,61.87
2019-02-17T12:34:06.742Z,60.27
2019-02-17T12:39:12.431Z,65.10
2019-02-17T12:44:18.142Z,56.70
2019-02-17T12:49:23.851Z,61.90
2019-02-17T12:54:29.379Z,56.73
2019-02-17T12:59:34.846Z,54.83
2019-02-17T13:04:39.214Z,56.47
2019-02-17T13:09:43.939Z,54.37
2019-02-17T13:14:48.531Z,52.80
2019-02-17T13:19:52.779Z,51.17
2019-02-17T13:24:56.953Z,58.10
2019-02-17T13:30:01.173Z,53.70
2019-02-17T13:35:05.655Z,49.47
2019-02-17T13:40:11.792Z,52.90
2019-02-17T13:45:16.747Z,50.07
2019-02-17T13:50:21.217Z,50.43
2019-02-17T13:55:26.090Z,49.03
2019-02-17T14:00:30.261Z,44.37
2019-02-17T14:05:35.791Z,47.77
2019-02-17T14:10:40.250Z,46.93
2019-02-17T14:15:45.043Z,45.27
2019-02-17T14:20:49.326Z,44.70
2019-02-17T14:25:53.674Z,43.40
2019-02-17T14:30:58.030Z,46.73
2019-02-17T14:36:02.370Z,43.57
2019-02-17T14:41:08.114Z,44.30
2019-02-17T14:46:13.182Z,46.03
2019-02-17T14:51:17.354Z,41.40
2019-02-17T14:56:21.519Z,43.87
2019-02-17T15:01:25.899Z,38.90
2019-02-17T15:06:30.869Z,36.93
2019-02-17T15:11:35.509Z,37.53
2019-02-17T15:16:39.686Z,41.03
2019-02-17T15:21:43.905Z,37.80
2019-02-17T15:26:48.281Z,37.10
2019-02-17T15:31:52.551Z,36.70
2019-02-17T15:36:56.779Z,34.83
2019-02-17T15:42:02.003Z,38.10
2019-02-17T15:47:07.722Z,34.90
2019-02-17T15:52:11.845Z,33.73
2019-02-17T15:57:16.701Z,37.43
2019-02-17T16:02:20.898Z,36.03
2019-02-17T16:07:25.686Z,33.10
2019-02-17T16:12:30.122Z,35.37
2019-02-17T16:17:34.395Z,32.17
2019-02-17T16:22:38.592Z,32.57
2019-02-17T16:27:42.754Z,35.07
2019-02-17T16:32:47.214Z,34.13
2019-02-17T16:37:52.358Z,35.00
2019-02-17T16:42:56.814Z,33.60
2019-02-17T16:48:01.082Z,33.73
2019-02-17T16:53:05.593Z,33.40
2019-02-17T16:58:10.602Z,32.37
2019-02-17T17:03:14.969Z,33.57
2019-02-17T17:08:19.260Z,37.13
2019-02-17T17:13:23.738Z,32.93
2019-02-17T17:18:28.030Z,36.77
2019-02-17T17:23:32.660Z,33.10
2019-02-17T17:28:37.365Z,32.87
2019-02-17T17:33:41.552Z,29.60
2019-02-17T17:38:45.846Z,36.13
2019-02-17T17:43:50.124Z,30.57
2019-02-17T17:48:54.415Z,38.20
2019-02-17T17:53:58.541Z,34.50
2019-02-17T17:59:02.764Z,33.80
2019-02-17T18:04:07.089Z,35.50
2019-02-17T18:09:11.374Z,35.27
2019-02-17T18:14:17.147Z,35.77
2019-02-17T18:19:21.403Z,33.10
2019-02-17T18:24:26.790Z,33.93
2019-02-17T18:29:31.579Z,30.27
2019-02-17T18:34:35.794Z,33.67
2019-02-17T18:39:40.057Z,31.37
2019-02-17T18:44:44.419Z,34.03
2019-02-17T18:49:48.565Z,33.60
2019-02-17T18:54:52.683Z,34.87
2019-02-17T18:59:56.865Z,30.67
2019-02-17T19:05:01.143Z,36.70
2019-02-17T19:10:08.579Z,36.57
2019-02-17T19:15:14.010Z,35.17
2019-02-17T19:20:20.018Z,35.93
2019-02-17T19:25:25.685Z,35.03
2019-02-17T19:30:30.293Z,37.33
2019-02-17T19:35:41.449Z,35.93
2019-02-17T19:40:49.453Z,40.19
2019-02-17T19:45:53.786Z,39.60
2019-02-17T19:50:58.051Z,34.47
2019-02-17T19:56:02.492Z,40.83
2019-02-17T20:01:07.015Z,41.07
2019-02-17T20:06:11.578Z,37.97
2019-02-17T20:11:16.043Z,37.93
2019-02-17T20:16:21.171Z,38.17
2019-02-17T20:21:25.850Z,38.27
2019-02-17T20:26:30.002Z,43.13
2019-02-17T20:31:34.358Z,43.27
2019-02-17T20:36:38.721Z,49.77
2019-02-17T20:41:43.221Z,43.97
2019-02-17T20:46:47.470Z,49.57
2019-02-17T20:51:51.658Z,48.90
2019-02-17T20:56:56.327Z,50.67
2019-02-17T21:02:00.452Z,54.10
2019-02-17T21:07:04.961Z,52.57
2019-02-17T21:12:10.737Z,49.47
2019-02-17T21:17:15.603Z,55.60
2019-02-17T21:22:19.812Z,54.30
2019-02-17T21:27:24.094Z,60.73
2019-02-17T21:32:28.351Z,55.00
2019-02-17T21:37:32.509Z,60.57
2019-02-17T21:42:37.570Z,55.80
2019-02-17T21:47:42.247Z,64.30
2019-02-17T21:52:46.577Z,68.53
2019-02-17T21:57:50.734Z,64.40
2019-02-17T22:02:54.891Z,71.33
2019-02-17T22:07:59.161Z,69.00
2019-02-17T22:13:03.410Z,73.63
2019-02-17T22:18:07.951Z,68.80
2019-02-17T22:23:12.523Z,74.77
2019-02-17T22:28:18.188Z,80.30
2019-02-17T22:33:22.930Z,75.70
2019-02-17T22:38:27.324Z,76.27
2019-02-17T22:43:31.526Z,81.07
2019-02-17T22:48:35.696Z,73.80
2019-02-17T22:53:43.693Z,78.93
2019-02-17T22:58:46.231Z,76.27
2019-02-17T23:03:50.378Z,85.23
2019-02-17T23:08:54.925Z,83.23
2019-02-17T23:13:59.086Z,83.67
2019-02-17T23:19:04.314Z,82.43
2019-02-17T23:24:10.071Z,86.20
2019-02-17T23:29:15.780Z,84.77
2019-02-17T23:34:20.406Z,86.30
2019-02-17T23:39:26.097Z,94.57
2019-02-17T23:44:30.275Z,92.97
2019-02-17T23:49:34.437Z,89.23
2019-02-17T23:54:39.380Z,95.87
2019-02-17T23:59:44.565Z,89.93
